Portada
METAR-TAF:

METAR-TAF

Aeropuertos :

Aeropuerto de Chibougamau-Chapais

Chibougamau, Quebec, Canadá

latitud: 49-46N, longitud: 074-32W, altitud: 388 m

Observación

El informe se hizo hace 56 minutos, a las 18:00 UTC
Viento 7 kt del sureste, variando entre este-sureste y sur-suroeste
Temperatura 28°C
Humedad 40%
Presión 1019 hPa
Visibilidad: 14.5 km
Cielo despejado

METAR: CYMT 211800Z AUTO 14007KT 120V210 9SM CLR 28/13 A3009 RMK SLP191 DENSITY ALT 2800FT

Hora: 14:56 (18:56 UTC)

Pronóstico

El informe se hizo hace 1 hora y 18 minutos, a las 17:38 UTC
Pronóstico válido del 21 a las 18 UTC al 21 a las 24 UTC
Viento 8 kt del sur-sureste
Visibilidad: 10 km
Cielo nuboso a una altura de 24000 ft
Evolucionando progresivamente
del 21 a las 22 UTC al 21 a las 24 UTC
Viento 3 kt con dirección variable

TAF: CYMT 211738Z 2118/2124 16008KT P6SM BKN240 BECMG 2122/2124 VRB03KT RMK FCST BASED ON AUTO OBS. NXT FCST WILL BE ISSUED AT 221145Z

Observaciones y pronósticos meteorológicos de más de 4000 aeropuertos (mensajes METAR y TAF).

Los puntos amarillos y rojos representan las estaciones disponibles.

Ponga el ratón en el punto deseado para ver el nombre de la estación.

Haga clic para ver las observaciones y los pronósticos meteorológicos.

Para cambiar el mapa : haga clic en los botones verdes con una cruz de color negro para hacer un zoom, en el botón verde con un guión para alejar o en las flechas verdes para mapas adyacentes.


METAR-TAF: